RYR6064 LOWW-EPWA
Flight info
| Callsign | RYR6064 |
|---|---|
| Flight time | 1h 0m |
| Altitude | 23000 |
| Route | KOXER Z649 XENAK M985 NIT/N0448F350 DCT MEBAN DCT ORTEB/N0444F340 DCT KONZI DCT LOGDA |
| Aircraft | A320/M-SDE3FGHIRWY/LB1 |
Departure
| Time | 2026-04-20 19:55 |
|---|---|
| Airport | Vienna International Airport (LOWW) |
Arrival
| Time | 2026-04-20 20:55 |
|---|---|
| Airport | Warsaw Chopin Airport (EPWA) |
| Time | Latitude | Longitude | Altitude | Speed | Heading |
|---|---|---|---|---|---|
| 2026-04-20 19:31 | 48.11904 | 16.55701 | 621 ft | 0 kts | 25° |
| 2026-04-20 19:43 | 48.11888 | 16.55690 | 624 ft | 4 kts | 23° |
| 2026-04-20 19:43 | 48.11878 | 16.55684 | 622 ft | 0 kts | 21° |
| 2026-04-20 19:47 | 48.11861 | 16.55675 | 620 ft | 4 kts | 7° |
| 2026-04-20 19:47 | 48.11835 | 16.55676 | 623 ft | 4 kts | 336° |
| 2026-04-20 19:47 | 48.11814 | 16.55699 | 623 ft | 3 kts | 300° |
| 2026-04-20 19:47 | 48.11812 | 16.55705 | 622 ft | 0 kts | 297° |
| 2026-04-20 19:49 | 48.11820 | 16.55680 | 626 ft | 3 kts | 295° |
| 2026-04-20 19:50 | 48.11823 | 16.55635 | 615 ft | 9 kts | 262° |
| 2026-04-20 19:50 | 48.11780 | 16.55589 | 617 ft | 8 kts | 172° |
| 2026-04-20 19:50 | 48.11745 | 16.55637 | 613 ft | 6 kts | 124° |
| 2026-04-20 19:50 | 48.11726 | 16.55689 | 612 ft | 5 kts | 117° |
| 2026-04-20 19:51 | 48.11703 | 16.55759 | 622 ft | 12 kts | 115° |
| 2026-04-20 19:51 | 48.11667 | 16.55871 | 623 ft | 11 kts | 116° |
| 2026-04-20 19:51 | 48.11635 | 16.55968 | 614 ft | 10 kts | 116° |
| 2026-04-20 19:51 | 48.11596 | 16.56087 | 619 ft | 14 kts | 116° |
| 2026-04-20 19:52 | 48.11557 | 16.56206 | 624 ft | 12 kts | 116° |
| 2026-04-20 19:52 | 48.11517 | 16.56327 | 610 ft | 13 kts | 116° |
| 2026-04-20 19:52 | 48.11481 | 16.56437 | 619 ft | 11 kts | 116° |
| 2026-04-20 19:52 | 48.11450 | 16.56533 | 623 ft | 10 kts | 116° |
| 2026-04-20 19:53 | 48.11406 | 16.56668 | 615 ft | 19 kts | 116° |
| 2026-04-20 19:53 | 48.11343 | 16.56867 | 619 ft | 22 kts | 115° |
| 2026-04-20 19:53 | 48.11273 | 16.57078 | 615 ft | 21 kts | 117° |
| 2026-04-20 19:53 | 48.11220 | 16.57234 | 615 ft | 7 kts | 128° |
| 2026-04-20 19:54 | 48.11168 | 16.57226 | 612 ft | 11 kts | 204° |
| 2026-04-20 19:54 | 48.11102 | 16.57178 | 613 ft | 10 kts | 206° |
| 2026-04-20 19:54 | 48.11060 | 16.57110 | 615 ft | 9 kts | 266° |
| 2026-04-20 19:54 | 48.11126 | 16.56881 | 610 ft | 54 kts | 296° |
| 2026-04-20 19:55 | 48.11379 | 16.56116 | 615 ft | 116 kts | 296° |
| 2026-04-20 19:55 | 48.11824 | 16.54766 | 638 ft | 165 kts | 299° |
| 2026-04-20 19:55 | 48.12208 | 16.53239 | 1360 ft | 159 kts | 274° |
| 2026-04-20 19:55 | 48.11891 | 16.51680 | 2053 ft | 166 kts | 235° |
| 2026-04-20 19:56 | 48.10875 | 16.50679 | 2435 ft | 188 kts | 199° |
| 2026-04-20 19:56 | 48.09558 | 16.50134 | 2798 ft | 210 kts | 197° |
| 2026-04-20 19:56 | 48.08091 | 16.49518 | 3318 ft | 224 kts | 197° |
| 2026-04-20 19:56 | 48.06657 | 16.48933 | 4074 ft | 226 kts | 192° |
| 2026-04-20 19:57 | 48.05088 | 16.49088 | 4813 ft | 235 kts | 161° |
| 2026-04-20 19:57 | 48.03585 | 16.50325 | 5186 ft | 260 kts | 147° |
| 2026-04-20 19:57 | 48.02003 | 16.51825 | 5720 ft | 278 kts | 147° |
| 2026-04-20 19:57 | 48.00342 | 16.53390 | 6563 ft | 284 kts | 148° |
| 2026-04-20 19:58 | 47.98656 | 16.54966 | 7414 ft | 288 kts | 148° |
| 2026-04-20 19:58 | 47.97158 | 16.56978 | 8241 ft | 295 kts | 126° |
| 2026-04-20 19:58 | 47.96312 | 16.59768 | 9052 ft | 300 kts | 100° |
| 2026-04-20 19:58 | 47.96301 | 16.62809 | 9846 ft | 302 kts | 75° |
| 2026-04-20 19:59 | 47.96938 | 16.65821 | 10392 ft | 315 kts | 68° |
| 2026-04-20 19:59 | 47.97690 | 16.69039 | 10652 ft | 339 kts | 68° |
| 2026-04-20 19:59 | 47.98397 | 16.72048 | 11071 ft | 351 kts | 68° |
| 2026-04-20 19:59 | 47.99255 | 16.75641 | 11802 ft | 356 kts | 65° |
| 2026-04-20 20:00 | 48.00333 | 16.78793 | 12516 ft | 357 kts | 54° |
| 2026-04-20 20:00 | 48.01764 | 16.81841 | 13282 ft | 360 kts | 51° |
| 2026-04-20 20:00 | 48.03231 | 16.84890 | 14013 ft | 364 kts | 51° |
| 2026-04-20 20:00 | 48.04715 | 16.87983 | 14672 ft | 368 kts | 51° |
| 2026-04-20 20:01 | 48.06211 | 16.91106 | 15333 ft | 371 kts | 51° |
| 2026-04-20 20:01 | 48.07720 | 16.94265 | 15981 ft | 375 kts | 51° |
| 2026-04-20 20:01 | 48.09137 | 16.97237 | 16589 ft | 378 kts | 51° |
| 2026-04-20 20:01 | 48.10630 | 17.00505 | 17220 ft | 384 kts | 57° |
| 2026-04-20 20:02 | 48.11750 | 17.04168 | 17842 ft | 391 kts | 69° |
| 2026-04-20 20:02 | 48.12380 | 17.08123 | 18462 ft | 397 kts | 81° |
| 2026-04-20 20:02 | 48.12519 | 17.12275 | 18973 ft | 403 kts | 91° |
| 2026-04-20 20:02 | 48.12385 | 17.16481 | 19501 ft | 407 kts | 92° |
| 2026-04-20 20:03 | 48.12253 | 17.20542 | 20004 ft | 411 kts | 92° |
| 2026-04-20 20:03 | 48.12115 | 17.24829 | 20523 ft | 416 kts | 91° |
| 2026-04-20 20:03 | 48.12237 | 17.29164 | 21037 ft | 419 kts | 81° |
| 2026-04-20 20:03 | 48.12776 | 17.33176 | 21521 ft | 421 kts | 71° |
| 2026-04-20 20:04 | 48.13723 | 17.37299 | 22046 ft | 423 kts | 67° |
| 2026-04-20 20:04 | 48.14738 | 17.41457 | 22563 ft | 427 kts | 67° |
| 2026-04-20 20:04 | 48.15732 | 17.45545 | 22947 ft | 431 kts | 67° |
| 2026-04-20 20:04 | 48.16751 | 17.49762 | 23029 ft | 430 kts | 67° |
| 2026-04-20 20:05 | 48.17761 | 17.53966 | 23027 ft | 428 kts | 67° |
| 2026-04-20 20:05 | 48.18736 | 17.58114 | 23032 ft | 431 kts | 68° |
| 2026-04-20 20:05 | 48.19727 | 17.62489 | 23165 ft | 444 kts | 69° |
| 2026-04-20 20:05 | 48.20687 | 17.66832 | 23309 ft | 454 kts | 69° |
| 2026-04-20 20:06 | 48.21679 | 17.71376 | 23448 ft | 463 kts | 69° |
| 2026-04-20 20:06 | 48.22689 | 17.76009 | 23604 ft | 471 kts | 69° |
| 2026-04-20 20:06 | 48.23705 | 17.80652 | 23711 ft | 478 kts | 69° |
| 2026-04-20 20:06 | 48.24750 | 17.85404 | 24043 ft | 477 kts | 69° |
| 2026-04-20 20:07 | 48.25733 | 17.89897 | 25084 ft | 459 kts | 69° |
| 2026-04-20 20:07 | 48.26709 | 17.94378 | 26090 ft | 447 kts | 69° |
| 2026-04-20 20:07 | 48.27682 | 17.98801 | 26638 ft | 446 kts | 66° |
| 2026-04-20 20:07 | 48.28968 | 18.03016 | 27048 ft | 443 kts | 56° |
| 2026-04-20 20:08 | 48.30676 | 18.06743 | 27423 ft | 440 kts | 45° |
| 2026-04-20 20:08 | 48.32793 | 18.10010 | 27789 ft | 437 kts | 36° |
| 2026-04-20 20:08 | 48.35035 | 18.12954 | 28156 ft | 439 kts | 36° |
| 2026-04-20 20:08 | 48.37332 | 18.16002 | 28512 ft | 442 kts | 36° |
| 2026-04-20 20:09 | 48.39591 | 18.19022 | 28863 ft | 445 kts | 37° |
| 2026-04-20 20:09 | 48.41907 | 18.22131 | 29211 ft | 448 kts | 37° |
| 2026-04-20 20:09 | 48.44238 | 18.25263 | 29567 ft | 450 kts | 37° |
| 2026-04-20 20:09 | 48.46581 | 18.28409 | 29901 ft | 453 kts | 37° |
| 2026-04-20 20:10 | 48.48927 | 18.31555 | 30207 ft | 455 kts | 37° |
| 2026-04-20 20:10 | 48.51221 | 18.34632 | 30483 ft | 457 kts | 37° |
| 2026-04-20 20:10 | 48.53512 | 18.37708 | 30755 ft | 458 kts | 37° |
| 2026-04-20 20:10 | 48.55898 | 18.40918 | 31039 ft | 460 kts | 37° |
| 2026-04-20 20:11 | 48.58287 | 18.44142 | 31316 ft | 462 kts | 37° |
| 2026-04-20 20:11 | 48.60638 | 18.47319 | 31579 ft | 463 kts | 37° |
| 2026-04-20 20:11 | 48.63088 | 18.50631 | 31838 ft | 464 kts | 38° |
| 2026-04-20 20:11 | 48.65463 | 18.53838 | 32090 ft | 466 kts | 38° |
| 2026-04-20 20:12 | 48.67885 | 18.57111 | 32324 ft | 468 kts | 38° |
| 2026-04-20 20:12 | 48.70262 | 18.60334 | 32546 ft | 469 kts | 38° |
| 2026-04-20 20:12 | 48.72694 | 18.63635 | 32769 ft | 471 kts | 38° |
| 2026-04-20 20:13 | 48.77548 | 18.70239 | 33161 ft | 473 kts | 38° |
| 2026-04-20 20:13 | 48.79850 | 18.73379 | 33326 ft | 475 kts | 38° |
| 2026-04-20 20:13 | 48.82270 | 18.76680 | 33490 ft | 476 kts | 38° |
| 2026-04-20 20:13 | 48.84733 | 18.80044 | 33638 ft | 477 kts | 38° |
| 2026-04-20 20:14 | 48.87148 | 18.83352 | 33897 ft | 474 kts | 39° |
| 2026-04-20 20:14 | 48.89569 | 18.86682 | 34448 ft | 466 kts | 39° |
| 2026-04-20 20:14 | 48.91891 | 18.89880 | 34826 ft | 463 kts | 39° |
| 2026-04-20 20:14 | 48.94272 | 18.93159 | 35004 ft | 462 kts | 39° |
| 2026-04-20 20:15 | 48.99030 | 18.99708 | 35041 ft | 460 kts | 39° |
| 2026-04-20 20:15 | 49.03752 | 19.06235 | 35037 ft | 460 kts | 39° |
| 2026-04-20 20:16 | 49.08493 | 19.12790 | 35036 ft | 460 kts | 39° |
| 2026-04-20 20:16 | 49.13223 | 19.19355 | 35046 ft | 460 kts | 39° |
| 2026-04-20 20:17 | 49.17943 | 19.25939 | 35042 ft | 459 kts | 39° |
| 2026-04-20 20:17 | 49.22659 | 19.32522 | 35038 ft | 459 kts | 39° |
| 2026-04-20 20:18 | 49.27375 | 19.39125 | 35042 ft | 459 kts | 40° |
| 2026-04-20 20:18 | 49.32079 | 19.45737 | 35049 ft | 459 kts | 40° |
| 2026-04-20 20:19 | 49.36758 | 19.52318 | 35052 ft | 459 kts | 40° |
| 2026-04-20 20:19 | 49.41486 | 19.58979 | 35056 ft | 459 kts | 40° |
| 2026-04-20 20:20 | 49.46180 | 19.65612 | 35058 ft | 459 kts | 40° |
| 2026-04-20 20:20 | 49.50827 | 19.72145 | 35062 ft | 458 kts | 40° |
| 2026-04-20 20:21 | 49.55598 | 19.78831 | 35066 ft | 458 kts | 40° |
| 2026-04-20 20:21 | 49.60267 | 19.85398 | 35072 ft | 457 kts | 40° |
| 2026-04-20 20:22 | 49.64951 | 19.92025 | 35077 ft | 457 kts | 40° |
| 2026-04-20 20:22 | 49.69285 | 19.98175 | 35082 ft | 456 kts | 40° |
| 2026-04-20 20:23 | 49.73203 | 20.03736 | 35078 ft | 456 kts | 40° |
| 2026-04-20 20:23 | 49.77865 | 20.10376 | 35081 ft | 455 kts | 40° |
| 2026-04-20 20:24 | 49.82486 | 20.16981 | 35086 ft | 455 kts | 40° |
| 2026-04-20 20:24 | 49.87140 | 20.23644 | 35089 ft | 455 kts | 41° |
| 2026-04-20 20:25 | 49.91754 | 20.30263 | 35090 ft | 454 kts | 41° |
| 2026-04-20 20:25 | 49.96385 | 20.36928 | 35091 ft | 454 kts | 41° |
| 2026-04-20 20:26 | 50.01007 | 20.43612 | 35091 ft | 454 kts | 41° |
| 2026-04-20 20:26 | 50.05477 | 20.50077 | 35091 ft | 453 kts | 40° |
| 2026-04-20 20:27 | 50.10718 | 20.55352 | 35089 ft | 448 kts | 20° |
| 2026-04-20 20:27 | 50.16708 | 20.57633 | 35090 ft | 443 kts | 2° |
| 2026-04-20 20:28 | 50.22843 | 20.58260 | 35088 ft | 443 kts | 2° |
| 2026-04-20 20:28 | 50.28996 | 20.58896 | 35087 ft | 443 kts | 2° |
| 2026-04-20 20:29 | 50.35147 | 20.59542 | 35091 ft | 443 kts | 2° |
| 2026-04-20 20:29 | 50.41253 | 20.60180 | 35093 ft | 443 kts | 2° |
| 2026-04-20 20:30 | 50.47416 | 20.60815 | 35094 ft | 443 kts | 2° |
| 2026-04-20 20:30 | 50.53567 | 20.61453 | 35100 ft | 443 kts | 2° |
| 2026-04-20 20:31 | 50.59604 | 20.62081 | 34929 ft | 443 kts | 2° |
| 2026-04-20 20:31 | 50.62744 | 20.62407 | 33848 ft | 451 kts | 3° |
| 2026-04-20 20:31 | 50.65845 | 20.62731 | 32839 ft | 453 kts | 3° |
| 2026-04-20 20:32 | 50.68979 | 20.63062 | 32109 ft | 448 kts | 3° |
| 2026-04-20 20:32 | 50.72064 | 20.63391 | 31525 ft | 442 kts | 3° |
| 2026-04-20 20:32 | 50.75110 | 20.63715 | 30935 ft | 436 kts | 3° |
| 2026-04-20 20:32 | 50.78121 | 20.64031 | 30349 ft | 431 kts | 4° |
| 2026-04-20 20:33 | 50.81099 | 20.64344 | 29704 ft | 426 kts | 4° |
| 2026-04-20 20:33 | 50.84037 | 20.64654 | 29151 ft | 419 kts | 4° |
| 2026-04-20 20:33 | 50.86926 | 20.64961 | 28602 ft | 414 kts | 4° |
| 2026-04-20 20:33 | 50.89780 | 20.65266 | 28053 ft | 408 kts | 4° |
| 2026-04-20 20:34 | 50.92595 | 20.65568 | 27522 ft | 403 kts | 4° |
| 2026-04-20 20:34 | 50.95364 | 20.65861 | 26999 ft | 398 kts | 3° |
| 2026-04-20 20:34 | 50.98127 | 20.66150 | 26485 ft | 394 kts | 3° |
| 2026-04-20 20:34 | 51.00850 | 20.66436 | 25975 ft | 390 kts | 3° |
| 2026-04-20 20:35 | 51.03544 | 20.66721 | 25502 ft | 386 kts | 3° |
| 2026-04-20 20:35 | 51.06216 | 20.67006 | 25023 ft | 383 kts | 3° |
| 2026-04-20 20:35 | 51.08863 | 20.67293 | 24554 ft | 380 kts | 3° |
| 2026-04-20 20:35 | 51.11481 | 20.67504 | 24209 ft | 373 kts | 358° |
| 2026-04-20 20:36 | 51.14032 | 20.67354 | 23990 ft | 363 kts | 357° |
| 2026-04-20 20:36 | 51.16543 | 20.67175 | 23552 ft | 360 kts | 356° |
| 2026-04-20 20:36 | 51.19030 | 20.66982 | 23082 ft | 356 kts | 356° |
| 2026-04-20 20:36 | 51.21486 | 20.66785 | 22660 ft | 351 kts | 356° |
| 2026-04-20 20:37 | 51.23916 | 20.66584 | 22227 ft | 348 kts | 356° |
| 2026-04-20 20:37 | 51.26319 | 20.66385 | 21806 ft | 344 kts | 356° |
| 2026-04-20 20:37 | 51.28699 | 20.66192 | 21385 ft | 341 kts | 356° |
| 2026-04-20 20:37 | 51.31063 | 20.66002 | 20951 ft | 338 kts | 356° |
| 2026-04-20 20:38 | 51.33406 | 20.65815 | 20522 ft | 336 kts | 356° |
| 2026-04-20 20:38 | 51.35734 | 20.65632 | 20092 ft | 334 kts | 356° |
| 2026-04-20 20:38 | 51.38050 | 20.65448 | 19661 ft | 333 kts | 357° |
| 2026-04-20 20:38 | 51.40358 | 20.65269 | 19227 ft | 331 kts | 357° |
| 2026-04-20 20:39 | 51.42655 | 20.65091 | 18789 ft | 330 kts | 357° |
| 2026-04-20 20:39 | 51.44946 | 20.64912 | 18353 ft | 329 kts | 357° |
| 2026-04-20 20:39 | 51.47232 | 20.64728 | 17887 ft | 328 kts | 357° |
| 2026-04-20 20:39 | 51.49472 | 20.64547 | 17465 ft | 325 kts | 357° |
| 2026-04-20 20:40 | 51.51726 | 20.64368 | 17056 ft | 323 kts | 357° |
| 2026-04-20 20:40 | 51.53964 | 20.64192 | 16629 ft | 321 kts | 357° |
| 2026-04-20 20:40 | 51.56186 | 20.64015 | 16215 ft | 319 kts | 357° |
| 2026-04-20 20:40 | 51.58406 | 20.63837 | 15803 ft | 318 kts | 357° |
| 2026-04-20 20:41 | 51.60610 | 20.63658 | 15402 ft | 317 kts | 357° |
| 2026-04-20 20:41 | 51.62806 | 20.63479 | 14990 ft | 315 kts | 357° |
| 2026-04-20 20:41 | 51.64993 | 20.63301 | 14586 ft | 314 kts | 357° |
| 2026-04-20 20:41 | 51.67173 | 20.63126 | 14155 ft | 314 kts | 357° |
| 2026-04-20 20:42 | 51.69364 | 20.62953 | 13641 ft | 316 kts | 357° |
| 2026-04-20 20:42 | 51.71550 | 20.62781 | 13202 ft | 313 kts | 358° |
| 2026-04-20 20:42 | 51.73716 | 20.62605 | 12791 ft | 311 kts | 358° |
| 2026-04-20 20:42 | 51.75867 | 20.62429 | 12371 ft | 308 kts | 358° |
| 2026-04-20 20:43 | 51.77977 | 20.62257 | 11959 ft | 306 kts | 358° |
| 2026-04-20 20:43 | 51.80095 | 20.62085 | 11536 ft | 304 kts | 358° |
| 2026-04-20 20:43 | 51.81801 | 20.61947 | 11202 ft | 303 kts | 358° |
| 2026-04-20 20:43 | 51.83898 | 20.61776 | 10778 ft | 301 kts | 359° |
| 2026-04-20 20:44 | 51.85987 | 20.61606 | 10362 ft | 300 kts | 359° |
| 2026-04-20 20:44 | 51.88033 | 20.61437 | 10204 ft | 289 kts | 359° |
| 2026-04-20 20:44 | 51.90008 | 20.61274 | 9992 ft | 281 kts | 359° |
| 2026-04-20 20:44 | 51.91940 | 20.61120 | 9824 ft | 277 kts | 359° |
| 2026-04-20 20:45 | 51.93862 | 20.60967 | 9611 ft | 277 kts | 359° |
| 2026-04-20 20:45 | 51.95744 | 20.60817 | 9187 ft | 276 kts | 359° |
| 2026-04-20 20:45 | 51.97646 | 20.60667 | 8744 ft | 276 kts | 359° |
| 2026-04-20 20:45 | 51.99422 | 20.60525 | 8329 ft | 275 kts | 360° |
| 2026-04-20 20:46 | 52.01334 | 20.60369 | 7885 ft | 275 kts | 360° |
| 2026-04-20 20:46 | 52.03244 | 20.60212 | 7432 ft | 275 kts | 360° |
| 2026-04-20 20:46 | 52.05152 | 20.60054 | 7005 ft | 274 kts | 0° |
| 2026-04-20 20:46 | 52.07052 | 20.59897 | 6570 ft | 274 kts | 0° |
| 2026-04-20 20:47 | 52.08942 | 20.59742 | 6142 ft | 272 kts | 0° |
| 2026-04-20 20:47 | 52.10826 | 20.59590 | 5733 ft | 269 kts | 0° |
| 2026-04-20 20:47 | 52.12673 | 20.59438 | 5328 ft | 267 kts | 0° |
| 2026-04-20 20:47 | 52.14480 | 20.59285 | 5194 ft | 254 kts | 0° |
| 2026-04-20 20:48 | 52.16202 | 20.59136 | 5064 ft | 242 kts | 1° |
| 2026-04-20 20:48 | 52.17850 | 20.58996 | 4826 ft | 234 kts | 1° |
| 2026-04-20 20:48 | 52.19459 | 20.58867 | 4697 ft | 231 kts | 1° |
| 2026-04-20 20:48 | 52.21065 | 20.58744 | 4488 ft | 230 kts | 1° |
| 2026-04-20 20:49 | 52.22662 | 20.58620 | 4257 ft | 230 kts | 1° |
| 2026-04-20 20:49 | 52.24248 | 20.58625 | 4006 ft | 225 kts | 16° |
| 2026-04-20 20:49 | 52.25533 | 20.59855 | 3774 ft | 214 kts | 55° |
| 2026-04-20 20:49 | 52.26013 | 20.62021 | 3676 ft | 200 kts | 91° |
| 2026-04-20 20:50 | 52.25645 | 20.64194 | 3640 ft | 201 kts | 112° |
| 2026-04-20 20:50 | 52.25077 | 20.66210 | 3551 ft | 190 kts | 113° |
| 2026-04-20 20:50 | 52.24574 | 20.68004 | 3468 ft | 184 kts | 112° |
| 2026-04-20 20:50 | 52.24051 | 20.69885 | 3376 ft | 181 kts | 112° |
| 2026-04-20 20:51 | 52.23534 | 20.71749 | 3298 ft | 180 kts | 112° |
| 2026-04-20 20:51 | 52.23019 | 20.73607 | 3192 ft | 180 kts | 112° |
| 2026-04-20 20:51 | 52.22503 | 20.75463 | 2987 ft | 178 kts | 112° |
| 2026-04-20 20:51 | 52.22012 | 20.77227 | 2774 ft | 164 kts | 112° |
| 2026-04-20 20:52 | 52.21559 | 20.78856 | 2538 ft | 150 kts | 112° |
| 2026-04-20 20:52 | 52.21145 | 20.80343 | 2339 ft | 138 kts | 112° |
| 2026-04-20 20:52 | 52.20757 | 20.81740 | 2156 ft | 133 kts | 112° |
| 2026-04-20 20:52 | 52.20377 | 20.83103 | 1991 ft | 131 kts | 112° |
| 2026-04-20 20:53 | 52.20004 | 20.84441 | 1798 ft | 129 kts | 112° |
| 2026-04-20 20:53 | 52.19630 | 20.85774 | 1606 ft | 129 kts | 112° |
| 2026-04-20 20:53 | 52.19256 | 20.87101 | 1423 ft | 129 kts | 112° |
| 2026-04-20 20:53 | 52.18889 | 20.88411 | 1234 ft | 129 kts | 112° |
| 2026-04-20 20:54 | 52.18513 | 20.89759 | 1037 ft | 132 kts | 112° |
| 2026-04-20 20:54 | 52.18128 | 20.91126 | 860 ft | 134 kts | 112° |
| 2026-04-20 20:54 | 52.17746 | 20.92511 | 700 ft | 134 kts | 113° |
| 2026-04-20 20:54 | 52.17359 | 20.93886 | 490 ft | 133 kts | 112° |
| 2026-04-20 20:55 | 52.16981 | 20.95253 | 351 ft | 128 kts | 112° |
| 2026-04-20 20:55 | 52.16677 | 20.96352 | 350 ft | 82 kts | 115° |
| 2026-04-20 20:55 | 52.16529 | 20.96915 | 335 ft | 29 kts | 102° |
| 2026-04-20 20:55 | 52.16514 | 20.97204 | 337 ft | 18 kts | 85° |
| 2026-04-20 20:56 | 52.16526 | 20.97336 | 337 ft | 6 kts | 60° |
| 2026-04-20 20:56 | 52.16557 | 20.97357 | 335 ft | 4 kts | 358° |
| 2026-04-20 20:56 | 52.16577 | 20.97341 | 339 ft | 3 kts | 326° |
| 2026-04-20 20:56 | 52.16585 | 20.97334 | 339 ft | 0 kts | 334° |
| 2026-04-20 20:57 | 52.16610 | 20.97318 | 337 ft | 8 kts | 337° |
| 2026-04-20 20:57 | 52.16656 | 20.97279 | 336 ft | 7 kts | 330° |
| 2026-04-20 20:57 | 52.16695 | 20.97244 | 337 ft | 6 kts | 332° |
| 2026-04-20 20:58 | 52.16730 | 20.97214 | 338 ft | 8 kts | 332° |
| 2026-04-20 20:58 | 52.16819 | 20.97138 | 334 ft | 17 kts | 332° |
| 2026-04-20 20:58 | 52.16926 | 20.97041 | 336 ft | 19 kts | 332° |
| 2026-04-20 20:58 | 52.17047 | 20.96938 | 338 ft | 21 kts | 332° |
| 2026-04-20 20:59 | 52.17177 | 20.96824 | 337 ft | 19 kts | 331° |
| 2026-04-20 20:59 | 52.17236 | 20.96738 | 338 ft | 8 kts | 267° |
| 2026-04-20 20:59 | 52.17204 | 20.96684 | 339 ft | 4 kts | 210° |
| 2026-04-20 20:59 | 52.17191 | 20.96672 | 335 ft | 0 kts | 208° |